< < Back
Terminal Aerodrome Forecast


Current Version              Previous Versions:   1  2  3  4  5  6  7  8  9  

Terminal Aerodrome Forecast

476
FTUS42 KFFC 310700 AAA
TAFATL
TAF AMD
KATL 310732Z 3108/0112 31006KT P6SM SKC
     FM311400 32008KT P6SM SCT120
     FM311900 31012G20KT P6SM BKN080
     FM010100 33018G28KT P6SM BKN025 PROB30 0101/0106 6SM -SHRA
     FM011000 33020G30KT P6SM BKN035=

Latest METAR

954
SAUS70 KWBC 311000 RRD
MTRATL
METAR KATL 310952Z 30008KT 10SM FEW150 SCT200 SCT250 07/04 A2993 RMK AO2
SLP133 T00720044


USA.gov is the U.S. government's official web portal to all federal, state and local government web resources and services.